Terminal Aerodrome Forecast
Issued by NWS

Home | Current Version | Previous Version | Text Only | Print | Product List | Glossary On
Versions: 1 2 3 4 5 6 7 8 9 10 11 12 13 14 15 16
000
FTUS42 KILM 020500
TAFCRE
TAF
KCRE 020520Z 0206/0306 00000KT 6SM BR FEW080
      TEMPO 0206/0209 3SM BR
     FM020900 00000KT 3SM BR FEW003
     FM021400 VRB05KT P6SM FEW040=

USA.gov is the U.S. government's official web portal to all federal, state and local government web resources and services.